Time;durP1;ratioP1;P1;durP2;ratioP2;P2;SDS_P1;SDS_P2;PMS_P1;PMS_P2;Temp;Humidity;BMP_temperature;BMP_pressure;BME280_temperature;BME280_humidity;BME280_pressure;Samples;Min_cycle;Max_cycle;Signal;HPM_P1;HPM_P2
2024/02/08 00:00:25;;;;;;;6.17;2.93;;;;;;;0.41;100.00;99917.03;5095813;28;20528;-65
2024/02/08 00:02:51;;;;;;;2.63;0.90;;;;;;;0.36;100.00;99909.00;5095498;28;20483;-65
2024/02/08 00:05:18;;;;;;;1.60;0.40;;;;;;;0.33;100.00;99912.94;5095863;28;20524;-65
2024/02/08 00:07:44;;;;;;;2.97;1.30;;;;;;;0.33;100.00;99909.50;5095501;28;20438;-65
2024/02/08 00:10:12;;;;;;;1.93;1.00;;;;;;;0.32;100.00;99914.00;5108391;22;20508;-69
2024/02/08 00:12:41;;;;;;;1.73;0.57;;;;;;;0.33;100.00;99917.47;5094193;28;21034;-69
2024/02/08 00:15:09;;;;;;;2.03;0.83;;;;;;;0.29;100.00;99917.16;5095202;28;20494;-69
2024/02/08 00:17:36;;;;;;;1.93;0.70;;;;;;;0.35;100.00;99915.34;5095174;28;20440;-69
2024/02/08 00:20:02;;;;;;;2.70;0.83;;;;;;;0.40;100.00;99912.75;5095067;28;20995;-69
2024/02/08 00:22:29;;;;;;;1.60;0.40;;;;;;;0.40;100.00;99904.75;5095018;28;20549;-69
2024/02/08 00:24:56;;;;;;;4.83;2.90;;;;;;;0.39;100.00;99900.50;5095303;28;20437;-69
2024/02/08 00:27:24;;;;;;;8.50;2.00;;;;;;;0.34;100.00;99898.56;5094660;28;20482;-69
2024/02/08 00:29:50;;;;;;;1.80;0.80;;;;;;;0.36;100.00;99906.34;5094900;28;20573;-69
2024/02/08 00:32:17;;;;;;;2.90;1.50;;;;;;;0.29;100.00;99906.50;5094935;28;20533;-69
2024/02/08 00:34:43;;;;;;;3.00;0.70;;;;;;;0.37;100.00;99907.94;5094809;28;20446;-69
2024/02/08 00:37:10;;;;;;;1.70;0.70;;;;;;;0.41;100.00;99903.72;5094760;28;20475;-69
2024/02/08 00:39:42;;;;;;;1.70;0.60;;;;;;;0.24;100.00;99906.47;5094741;28;20523;-69
2024/02/08 00:42:11;;;;;;;5.97;1.07;;;;;;;0.16;100.00;99897.06;5094661;28;20510;-69
2024/02/08 00:44:41;;;;;;;3.10;1.53;;;;;;;0.10;100.00;99902.59;5094679;28;20524;-69
2024/02/08 00:47:08;;;;;;;1.50;0.30;;;;;;;0.14;100.00;99909.81;5094343;28;20489;-69
2024/02/08 00:49:35;;;;;;;4.73;1.70;;;;;;;0.17;100.00;99919.94;5094417;28;20570;-69
2024/02/08 00:52:02;;;;;;;3.97;1.17;;;;;;;0.20;100.00;99918.66;5094432;28;20460;-69
2024/02/08 00:54:28;;;;;;;1.60;0.40;;;;;;;0.15;100.00;99916.75;5094145;28;20531;-69
2024/02/08 00:56:55;;;;;;;2.83;0.93;;;;;;;0.07;100.00;99917.19;5094490;28;20471;-69
2024/02/08 00:59:22;;;;;;;2.37;0.87;;;;;;;0.17;100.00;99900.50;5094123;28;20965;-69
2024/02/08 01:01:51;;;;;;;2.43;0.90;;;;;;;0.17;100.00;99903.97;5094741;28;20460;-69
2024/02/08 01:04:21;;;;;;;1.60;0.50;;;;;;;0.18;100.00;99904.81;5094529;28;20947;-69
2024/02/08 01:06:48;;;;;;;1.57;0.40;;;;;;;0.22;100.00;99905.91;5094557;28;20452;-70
2024/02/08 01:09:14;;;;;;;1.70;0.57;;;;;;;0.29;100.00;99892.41;5094042;28;20520;-68
2024/02/08 01:11:41;;;;;;;1.70;0.60;;;;;;;0.31;100.00;99899.09;5094256;28;20535;-69
2024/02/08 01:14:07;;;;;;;2.00;0.73;;;;;;;0.30;100.00;99902.00;5094528;28;20466;-70
2024/02/08 01:16:44;;;;;;;1.80;0.80;;;;;;;0.28;100.00;99899.59;5094264;28;20528;-69
2024/02/08 01:19:14;;;;;;;1.90;0.50;;;;;;;0.16;100.00;99894.38;5094143;28;20504;-69
2024/02/08 01:21:43;;;;;;;2.10;1.03;;;;;;;0.16;100.00;99896.25;5093529;28;20464;-70
2024/02/08 01:24:11;;;;;;;1.70;0.60;;;;;;;0.09;100.00;99899.13;5094260;28;20448;-69
2024/02/08 01:26:37;;;;;;;2.47;0.90;;;;;;;0.15;100.00;99898.13;5094306;28;20475;-70
2024/02/08 01:29:07;;;;;;;3.13;0.90;;;;;;;0.21;100.00;99899.75;5094090;28;20831;-70
2024/02/08 01:31:37;;;;;;;1.60;0.43;;;;;;;0.18;100.00;99896.81;5094264;28;20494;-70
2024/02/08 01:34:05;;;;;;;1.53;0.30;;;;;;;0.07;100.00;99900.41;5093603;28;20433;-70
2024/02/08 01:36:34;;;;;;;1.70;0.53;;;;;;;0.15;100.00;99894.66;5093528;28;20954;-70
2024/02/08 01:39:02;;;;;;;1.60;0.40;;;;;;;0.08;100.00;99889.50;5094007;28;20447;-70
2024/02/08 01:41:29;;;;;;;1.60;0.60;;;;;;;0.08;100.00;99900.16;5094097;28;20832;-70
2024/02/08 01:44:03;;;;;;;2.27;0.80;;;;;;;0.04;100.00;99899.03;5093404;28;20527;-70
2024/02/08 01:46:37;;;;;;;2.47;1.33;;;;;;;-0.02;100.00;99892.84;5093754;28;20960;-70
2024/02/08 01:49:05;;;;;;;1.60;0.40;;;;;;;0.05;100.00;99895.34;5093701;28;20475;-70
2024/02/08 01:51:34;;;;;;;2.97;2.40;;;;;;;0.03;100.00;99892.09;5093231;28;20808;-69
2024/02/08 01:54:01;;;;;;;1.70;0.60;;;;;;;0.02;100.00;99890.50;5094165;28;20436;-69
2024/02/08 01:56:28;;;;;;;3.80;1.23;;;;;;;0.08;100.00;99886.03;5094074;28;20448;-69
2024/02/08 01:58:57;;;;;;;1.60;0.50;;;;;;;0.02;100.00;99879.84;5093262;28;20519;-69
2024/02/08 02:01:24;;;;;;;1.97;0.97;;;;;;;0.01;100.00;99870.28;5093442;28;20429;-69
2024/02/08 02:03:51;;;;;;;1.53;0.30;;;;;;;0.05;100.00;99875.91;5093435;28;20535;-69
2024/02/08 02:06:17;;;;;;;2.10;0.60;;;;;;;0.04;100.00;99872.41;5093848;28;20497;-69
2024/02/08 02:08:53;;;;;;;2.00;0.50;;;;;;;0.00;100.00;99860.69;5092925;28;20896;-69
2024/02/08 02:11:25;;;;;;;1.60;0.50;;;;;;;-0.05;100.00;99857.94;5093499;28;20425;-69
2024/02/08 02:13:53;;;;;;;1.60;0.40;;;;;;;0.04;100.00;99861.75;5093690;28;20765;-69
2024/02/08 02:16:23;;;;;;;2.50;0.80;;;;;;;0.04;100.00;99861.75;5093788;28;20529;-70
2024/02/08 02:18:50;;;;;;;1.50;0.30;;;;;;;-0.05;100.00;99855.28;5093319;28;20443;-69
2024/02/08 02:21:20;;;;;;;1.70;0.57;;;;;;;0.02;100.00;99847.91;5093367;28;20444;-69
2024/02/08 02:23:47;;;;;;;1.53;0.30;;;;;;;0.07;100.00;99850.63;5093852;28;20515;-69
2024/02/08 02:26:15;;;;;;;1.70;0.60;;;;;;;0.10;100.00;99846.66;5093658;28;20447;-69
2024/02/08 02:28:41;;;;;;;2.10;1.13;;;;;;;-0.01;100.00;99851.06;5093201;28;20480;-68
2024/02/08 02:31:13;;;;;;;1.50;0.40;;;;;;;-0.03;100.00;99842.53;5093633;28;20532;-69
2024/02/08 02:33:40;;;;;;;1.53;0.30;;;;;;;-0.09;100.00;99848.84;5093217;28;20547;-70
2024/02/08 02:36:07;;;;;;;1.57;0.40;;;;;;;0.06;100.00;99846.34;5096937;28;20523;-69
2024/02/08 02:38:37;;;;;;;3.23;0.97;;;;;;;0.04;100.00;99845.00;5097125;28;20440;-69
2024/02/08 02:41:06;;;;;;;3.50;0.60;;;;;;;0.02;100.00;99839.13;5097057;28;20493;-70
2024/02/08 02:43:34;;;;;;;1.50;0.30;;;;;;;-0.07;100.00;99841.44;5096957;28;20472;-70
2024/02/08 02:46:00;;;;;;;4.10;1.30;;;;;;;-0.04;100.00;99839.06;5096986;28;20518;-70
2024/02/08 02:48:27;;;;;;;1.50;0.30;;;;;;;-0.01;100.00;99832.44;5097170;28;20464;-70
2024/02/08 02:50:54;;;;;;;1.90;0.90;;;;;;;0.11;100.00;99830.44;5096875;28;20464;-70
2024/02/08 02:53:20;;;;;;;1.60;0.47;;;;;;;0.12;100.00;99837.38;5096739;28;20885;-70
2024/02/08 02:55:48;;;;;;;3.83;1.90;;;;;;;0.03;100.00;99833.53;5096767;28;20519;-70
2024/02/08 02:58:15;;;;;;;1.50;0.30;;;;;;;0.02;100.00;99837.25;5096428;28;20440;-70
2024/02/08 03:00:42;;;;;;;11.20;1.40;;;;;;;0.10;100.00;99846.66;5097129;28;20533;-70
2024/02/08 03:03:12;;;;;;;2.57;0.80;;;;;;;0.05;100.00;99841.28;5096655;28;20543;-70
2024/02/08 03:05:42;;;;;;;1.60;0.40;;;;;;;0.05;100.00;99846.63;5096438;28;20437;-70
2024/02/08 03:08:10;;;;;;;1.63;0.50;;;;;;;0.03;100.00;99849.50;5096760;28;20420;-70
2024/02/08 03:13:19;;;;;;;2.17;0.83;;;;;;;-0.01;100.00;99843.06;5074207;28;20511;-70
2024/02/08 03:15:45;;;;;;;2.13;0.77;;;;;;;-0.03;100.00;99843.34;5074127;28;20947;-70
2024/02/08 03:18:14;;;;;;;10.50;1.13;;;;;;;0.01;100.00;99841.00;5073761;28;20477;-70
2024/02/08 03:20:41;;;;;;;1.70;0.60;;;;;;;-0.05;100.00;99831.31;5073916;28;20444;-70
2024/02/08 03:23:08;;;;;;;1.60;0.43;;;;;;;0.04;100.00;99840.47;5073948;28;21050;-70
2024/02/08 03:25:40;;;;;;;1.80;0.63;;;;;;;0.00;100.00;99839.38;5073772;28;20439;-70
2024/02/08 03:28:08;;;;;;;3.03;1.17;;;;;;;-0.07;100.00;99836.09;5073731;28;20935;-70
2024/02/08 03:30:36;;;;;;;1.90;0.70;;;;;;;-0.08;100.00;99843.28;5074347;28;20477;-70
2024/02/08 03:33:12;;;;;;;2.37;0.90;;;;;;;0.02;100.00;99829.28;5073579;28;20497;-70
2024/02/08 03:35:39;;;;;;;1.80;0.60;;;;;;;0.03;100.00;99825.56;5073603;28;20430;-70
2024/02/08 03:38:08;;;;;;;1.53;0.40;;;;;;;0.08;100.00;99820.28;5073819;28;20499;-70
2024/02/08 03:40:36;;;;;;;1.50;0.30;;;;;;;0.17;100.00;99823.28;5073786;28;20444;-70
2024/02/08 03:43:03;;;;;;;3.20;1.20;;;;;;;0.11;100.00;99817.13;5073599;28;20453;-70
2024/02/08 03:45:30;;;;;;;1.60;0.47;;;;;;;0.06;100.00;99821.59;5095414;28;20429;-70
2024/02/08 03:47:59;;;;;;;1.50;0.30;;;;;;;0.15;100.00;99825.41;5096245;28;20448;-70
2024/02/08 03:50:26;;;;;;;1.60;0.50;;;;;;;0.25;100.00;99826.31;5095959;28;20567;-69
2024/02/08 03:52:53;;;;;;;1.57;0.37;;;;;;;0.16;100.00;99824.34;5096102;28;20510;-69
2024/02/08 03:55:26;;;;;;;1.50;0.30;;;;;;;0.22;100.00;99829.50;5096146;28;20447;-70
2024/02/08 03:57:56;;;;;;;1.67;0.43;;;;;;;0.16;100.00;99827.81;5095794;28;20433;-69
2024/02/08 04:00:28;;;;;;;3.37;0.87;;;;;;;0.11;100.00;99835.75;5095679;28;20468;-69
2024/02/08 04:02:58;;;;;;;6.60;0.80;;;;;;;0.14;100.00;99840.59;5095692;28;20460;-69
2024/02/08 04:05:36;;;;;;;1.60;0.40;;;;;;;0.22;100.00;99848.13;5095627;28;20448;-69
2024/02/08 04:08:22;;;;;;;2.33;1.07;;;;;;;0.20;100.00;99842.25;5095224;28;20841;-69
2024/02/08 04:54:57;;;;;;;1.80;0.50;;;;;;;0.37;100.00;99834.16;5012601;28;20424;-70
2024/02/08 04:57:25;;;;;;;1.70;0.50;;;;;;;0.38;100.00;99825.09;5012114;28;20445;-70
2024/02/08 04:59:51;;;;;;;1.50;0.40;;;;;;;0.38;100.00;99816.31;5048988;28;20432;-70
2024/02/08 05:02:18;;;;;;;1.77;0.57;;;;;;;0.53;100.00;99821.75;5094723;28;20892;-70
2024/02/08 05:04:48;;;;;;;4.93;1.47;;;;;;;0.53;100.00;99829.75;5094023;28;20441;-70
2024/02/08 05:07:16;;;;;;;1.53;0.40;;;;;;;0.39;100.00;99831.22;5093926;28;20421;-71
2024/02/08 05:09:43;;;;;;;1.50;0.40;;;;;;;0.32;100.00;99825.31;5093725;28;21070;-70
2024/02/08 05:12:10;;;;;;;1.60;0.30;;;;;;;0.24;100.00;99816.72;5094451;28;20548;-70
2024/02/08 05:14:38;;;;;;;1.57;0.40;;;;;;;0.33;100.00;99827.72;5094607;28;20440;-70
2024/02/08 05:17:08;;;;;;;2.00;1.13;;;;;;;0.33;100.00;99817.06;5094125;28;20451;-70
2024/02/08 05:19:35;;;;;;;2.53;1.27;;;;;;;0.35;100.00;99816.81;5094364;28;20429;-71
2024/02/08 05:22:02;;;;;;;1.53;0.30;;;;;;;0.43;100.00;99817.16;5093940;28;20490;-71
2024/02/08 05:24:30;;;;;;;1.57;0.40;;;;;;;0.42;100.00;99817.41;5093590;28;20531;-70
2024/02/08 05:26:57;;;;;;;1.50;0.30;;;;;;;0.41;100.00;99813.16;5094228;28;20540;-70
2024/02/08 05:29:25;;;;;;;2.43;0.80;;;;;;;0.40;100.00;99823.00;5093894;28;20441;-70
2024/02/08 05:31:51;;;;;;;1.60;0.40;;;;;;;0.44;100.00;99817.97;5093492;28;20540;-70
2024/02/08 05:34:17;;;;;;;1.70;0.60;;;;;;;0.36;100.00;99811.25;5093829;28;20569;-70
2024/02/08 05:36:45;;;;;;;2.10;1.17;;;;;;;0.32;100.00;99815.47;5093499;28;20539;-70
2024/02/08 05:39:12;;;;;;;1.70;0.50;;;;;;;0.33;100.00;99810.94;5093534;28;20806;-70
2024/02/08 05:41:44;;;;;;;1.60;0.40;;;;;;;0.32;100.00;99814.66;5093689;28;20441;-70
2024/02/08 05:44:12;;;;;;;1.60;0.40;;;;;;;0.41;100.00;99813.97;5094145;28;20429;-70
2024/02/08 05:46:39;;;;;;;1.70;0.43;;;;;;;0.38;100.00;99813.66;5093417;28;20444;-70
2024/02/08 05:49:11;;;;;;;2.20;0.57;;;;;;;0.30;100.00;99811.44;5094026;28;21002;-68
2024/02/08 05:51:42;;;;;;;1.60;0.30;;;;;;;0.31;100.00;99805.06;5093343;28;20425;-69
2024/02/08 05:54:09;;;;;;;1.67;0.47;;;;;;;0.41;100.00;99803.31;5094100;28;20742;-67
2024/02/08 05:56:39;;;;;;;1.70;0.53;;;;;;;0.41;100.00;99797.97;5093448;28;20865;-67
2024/02/08 05:59:08;;;;;;;1.70;0.60;;;;;;;0.49;100.00;99804.72;5093719;28;20442;-67
2024/02/08 06:01:44;;;;;;;2.33;0.70;;;;;;;0.62;100.00;99796.28;5093589;28;20448;-66
2024/02/08 06:04:12;;;;;;;2.10;0.73;;;;;;;0.59;100.00;99785.34;5093386;28;20428;-66
2024/02/08 06:06:48;;;;;;;1.63;0.47;;;;;;;0.54;100.00;99779.97;5093588;28;20444;-67
2024/02/08 06:09:37;;;;;;;1.80;0.70;;;;;;;0.50;100.00;99780.47;5094088;28;20456;-67
2024/02/08 06:12:08;;;;;;;1.70;0.63;;;;;;;0.50;100.00;99769.00;5097413;28;20452;-67
2024/02/08 06:14:38;;;;;;;2.07;0.87;;;;;;;0.57;100.00;99766.13;5097567;28;20425;-68
2024/02/08 06:17:07;;;;;;;1.80;0.70;;;;;;;0.53;100.00;99773.81;5097581;28;20792;-67
2024/02/08 06:19:37;;;;;;;1.70;0.50;;;;;;;0.45;100.00;99777.75;5097622;28;20793;-67
2024/02/08 06:22:16;;;;;;;2.17;1.03;;;;;;;0.45;100.00;99783.09;5097359;28;20487;-69
2024/02/08 06:24:45;;;;;;;1.97;0.60;;;;;;;0.60;100.00;99781.59;5097612;28;20429;-69
2024/02/08 06:27:13;;;;;;;3.20;0.80;;;;;;;0.55;100.00;99793.03;5097746;28;20535;-69
2024/02/08 06:29:47;;;;;;;2.13;1.00;;;;;;;0.47;100.00;99791.63;5097488;28;20460;-69
2024/02/08 06:32:43;;;;;;;1.83;0.70;;;;;;;0.49;100.00;99794.06;5097581;28;20547;-69
2024/02/08 06:35:11;;;;;;;2.07;0.87;;;;;;;0.44;100.00;99804.63;5098003;28;20431;-69
2024/02/08 06:37:44;;;;;;;1.67;0.57;;;;;;;0.48;100.00;99800.41;5097350;28;20447;-69
2024/02/08 06:40:21;;;;;;;1.50;0.30;;;;;;;0.53;100.00;99802.31;5097663;28;20470;-68
2024/02/08 06:45:53;;;;;;;1.60;0.50;;;;;;;0.53;100.00;99808.44;5096617;28;20440;-69
2024/02/08 06:48:48;;;;;;;1.90;0.87;;;;;;;0.55;100.00;99803.69;5097131;28;20767;-69
2024/02/08 07:37:55;;;;;;;1.60;0.43;;;;;;;1.15;100.00;99834.50;5096280;28;20404;-69
2024/02/08 07:40:26;;;;;;;4.17;2.27;;;;;;;1.24;100.00;99818.84;5096085;28;20440;-69
2024/02/08 07:42:53;;;;;;;2.23;1.13;;;;;;;1.31;100.00;99822.06;5095788;28;20827;-70
2024/02/08 07:45:26;;;;;;;2.83;1.60;;;;;;;1.21;100.00;99817.47;5096277;28;20436;-69
2024/02/08 07:47:58;;;;;;;2.10;1.13;;;;;;;1.24;100.00;99822.31;5096172;28;20432;-69
2024/02/08 07:50:35;;;;;;;1.90;0.80;;;;;;;1.38;100.00;99833.31;5095977;28;20504;-69
2024/02/08 07:53:08;;;;;;;2.17;0.70;;;;;;;1.51;100.00;99832.84;5095354;28;20952;-70
2024/02/08 07:55:53;;;;;;;2.33;0.93;;;;;;;1.57;100.00;99824.84;5095742;28;20755;-70
2024/02/08 07:58:20;;;;;;;1.77;0.60;;;;;;;1.65;100.00;99811.81;5095184;28;20420;-69
2024/02/08 08:00:49;;;;;;;2.20;1.03;;;;;;;1.74;100.00;99804.91;5095536;28;20532;-69
2024/02/08 08:03:16;;;;;;;1.87;0.70;;;;;;;1.87;100.00;99800.94;5095305;28;20972;-69
2024/02/08 08:05:50;;;;;;;1.50;0.30;;;;;;;1.96;100.00;99798.56;5095397;28;20811;-69
2024/02/08 08:08:25;;;;;;;1.80;0.60;;;;;;;2.02;100.00;99792.16;5095392;28;20420;-69
2024/02/08 08:10:56;;;;;;;1.60;0.40;;;;;;;2.06;100.00;99795.91;5095024;28;20823;-71
2024/02/08 08:13:50;;;;;;;2.73;0.67;;;;;;;2.12;100.00;99786.84;5095729;28;20468;-70
2024/02/08 08:18:57;;;;;;;2.40;1.20;;;;;;;2.15;100.00;99805.00;5095140;28;20401;-70
2024/02/08 08:21:26;;;;;;;6.93;0.80;;;;;;;2.16;100.00;99795.91;5095363;28;20444;-71
2024/02/08 08:23:59;;;;;;;1.70;0.53;;;;;;;2.21;100.00;99797.78;5094743;28;20941;-70
2024/02/08 08:26:37;;;;;;;5.93;3.07;;;;;;;2.19;100.00;99807.97;5095139;28;20452;-71
2024/02/08 08:29:04;;;;;;;2.10;1.23;;;;;;;2.30;100.00;99796.19;5095474;28;20413;-70
2024/02/08 08:31:51;;;;;;;2.20;0.80;;;;;;;2.39;100.00;99786.63;5094601;28;20483;-73
2024/02/08 08:37:26;;;;;;;2.57;0.80;;;;;;;2.55;100.00;99768.69;5094688;28;20432;-74
2024/02/08 08:42:49;;;;;;;2.50;1.37;;;;;;;2.62;100.00;99768.44;5094313;28;20968;-74
2024/02/08 08:45:17;;;;;;;5.43;2.13;;;;;;;2.61;100.00;99772.16;5094846;28;20512;-69
2024/02/08 08:47:43;;;;;;;1.80;0.53;;;;;;;2.66;100.00;99778.34;5094533;28;20987;-73
2024/02/08 08:50:18;;;;;;;1.97;0.87;;;;;;;2.78;100.00;99780.72;5095346;28;20476;-72
2024/02/08 08:52:50;;;;;;;1.97;0.87;;;;;;;2.88;100.00;99779.88;5094327;28;20967;-74
2024/02/08 08:55:20;;;;;;;1.67;0.63;;;;;;;2.90;100.00;99793.81;5094937;28;20490;-73
2024/02/08 08:57:53;;;;;;;1.90;0.97;;;;;;;2.91;100.00;99792.72;5094633;28;20884;-72
2024/02/08 09:00:31;;;;;;;4.03;1.83;;;;;;;2.94;100.00;99782.31;5094500;28;20927;-69
2024/02/08 09:02:59;;;;;;;1.83;0.83;;;;;;;3.04;100.00;99778.81;5094597;28;20505;-71
2024/02/08 09:05:30;;;;;;;3.83;2.97;;;;;;;3.10;100.00;99782.25;5094646;28;20527;-71
2024/02/08 09:07:59;;;;;;;2.73;1.33;;;;;;;3.16;100.00;99790.00;5094531;28;20773;-71
2024/02/08 09:10:33;;;;;;;2.00;0.90;;;;;;;3.27;100.00;99788.09;5093887;28;20571;-71
2024/02/08 09:13:00;;;;;;;2.00;0.80;;;;;;;3.31;100.00;99780.34;5093907;28;20499;-69
2024/02/08 09:15:41;;;;;;;2.90;1.33;;;;;;;3.31;100.00;99777.66;5094286;28;20477;-69
2024/02/08 09:18:08;;;;;;;1.60;0.43;;;;;;;3.33;100.00;99789.72;5094183;28;20428;-71
2024/02/08 09:20:37;;;;;;;2.63;1.03;;;;;;;3.39;100.00;99785.13;5094218;28;20433;-70
2024/02/08 09:23:12;;;;;;;2.63;0.80;;;;;;;3.33;100.00;99767.50;5094419;28;20556;-71
2024/02/08 09:25:44;;;;;;;4.60;2.03;;;;;;;3.42;100.00;99760.50;5094262;28;20493;-70
2024/02/08 09:28:23;;;;;;;1.93;0.87;;;;;;;3.47;100.00;99766.63;5094385;28;20425;-70
2024/02/08 09:30:53;;;;;;;2.73;1.77;;;;;;;3.55;100.00;99770.63;5094412;28;20471;-71
2024/02/08 09:33:30;;;;;;;2.57;0.83;;;;;;;3.67;100.00;99783.66;5093997;28;20463;-71
2024/02/08 09:35:56;;;;;;;6.40;1.97;;;;;;;3.75;100.00;99786.56;5093981;28;20429;-71
2024/02/08 09:38:28;;;;;;;4.50;2.60;;;;;;;3.70;100.00;99781.25;5093545;28;20437;-71
2024/02/08 09:40:59;;;;;;;2.40;1.50;;;;;;;3.68;100.00;99787.97;5093539;28;21019;-72
2024/02/08 09:43:29;;;;;;;2.77;1.10;;;;;;;3.67;100.00;99794.38;5093559;28;20495;-72
2024/02/08 09:46:10;;;;;;;2.63;1.17;;;;;;;3.72;100.00;99803.22;5093484;28;20821;-70
2024/02/08 09:48:43;;;;;;;2.37;0.60;;;;;;;3.80;100.00;99793.78;5093805;28;20444;-68
2024/02/08 09:51:23;;;;;;;3.57;1.50;;;;;;;3.80;100.00;99789.22;5093704;28;20491;-71
2024/02/08 09:54:14;;;;;;;2.10;0.70;;;;;;;3.80;100.00;99781.19;5093998;28;20420;-75
2024/02/08 09:56:49;;;;;;;1.90;0.63;;;;;;;3.85;100.00;99784.91;5093925;28;20436;-75
2024/02/08 09:59:40;;;;;;;7.47;1.97;;;;;;;3.93;100.00;99779.78;5093647;28;20439;-74
2024/02/08 10:02:20;;;;;;;3.40;1.57;;;;;;;4.03;100.00;99789.66;5093093;28;20452;-72
2024/02/08 10:04:49;;;;;;;1.60;0.50;;;;;;;4.08;100.00;99792.31;5094011;28;20424;-72
2024/02/08 10:07:19;;;;;;;7.57;1.70;;;;;;;4.12;100.00;99797.91;5093565;28;20463;-72
2024/02/08 10:09:47;;;;;;;2.00;0.80;;;;;;;4.14;99.89;99791.19;5093183;28;20495;-72
2024/02/08 10:12:18;;;;;;;4.20;1.30;;;;;;;4.17;99.87;99779.13;5093663;28;20486;-72
2024/02/08 10:14:54;;;;;;;2.60;1.33;;;;;;;4.25;99.67;99767.78;5093582;28;20820;-72
2024/02/08 10:17:24;;;;;;;4.70;2.00;;;;;;;4.29;99.77;99766.16;5093189;28;20950;-72
2024/02/08 10:22:42;;;;;;;6.63;1.43;;;;;;;4.39;98.42;99755.38;5092807;28;21003;-72
2024/02/08 10:27:57;;;;;;;4.13;1.53;;;;;;;4.44;97.48;99735.75;5093140;28;20890;-72
2024/02/08 10:30:25;;;;;;;3.70;1.37;;;;;;;4.50;97.66;99738.09;5093374;28;20446;-72
2024/02/08 10:32:53;;;;;;;2.33;1.17;;;;;;;4.60;97.48;99734.53;5093170;28;20456;-72
2024/02/08 10:35:21;;;;;;;3.03;1.57;;;;;;;4.65;97.06;99745.25;5093473;28;20448;-72
2024/02/08 10:37:49;;;;;;;3.10;1.40;;;;;;;4.68;95.87;99739.28;5093273;28;20441;-72
2024/02/08 10:40:29;;;;;;;4.10;2.20;;;;;;;4.70;95.62;99739.81;5092721;28;20455;-72
2024/02/08 10:43:00;;;;;;;2.93;1.43;;;;;;;4.68;94.84;99731.25;5092908;28;20536;-72
2024/02/08 10:45:32;;;;;;;2.07;0.90;;;;;;;4.63;95.42;99742.03;5093493;28;20532;-72
2024/02/08 10:48:00;;;;;;;3.73;1.87;;;;;;;4.70;95.62;99733.66;5093168;28;20420;-72
2024/02/08 10:50:28;;;;;;;4.37;1.77;;;;;;;4.81;96.08;99725.22;5093056;28;20432;-73
2024/02/08 10:53:00;;;;;;;2.53;1.23;;;;;;;4.93;95.40;99722.16;5093044;28;20634;-73
2024/02/08 10:55:36;;;;;;;4.07;1.90;;;;;;;5.12;94.84;99721.41;5094261;28;20482;-73
2024/02/08 11:04:00;;;;;;;3.30;1.77;;;;;;;5.45;92.98;99709.72;5070370;28;20973;-73
2024/02/08 11:06:29;;;;;;;4.10;2.20;;;;;;;5.56;92.36;99710.38;5070887;28;20514;-73
2024/02/08 11:09:09;;;;;;;2.70;1.53;;;;;;;5.60;91.82;99707.94;5071209;28;20434;-73
2024/02/08 11:11:40;;;;;;;2.17;1.03;;;;;;;5.59;91.51;99709.81;5070825;28;20430;-73
2024/02/08 11:14:09;;;;;;;2.60;1.60;;;;;;;5.64;92.02;99708.94;5070777;28;20521;-73
2024/02/08 11:16:42;;;;;;;3.07;1.40;;;;;;;5.69;92.14;99706.19;5070639;28;20787;-73
2024/02/08 11:19:16;;;;;;;2.80;1.43;;;;;;;5.80;91.19;99713.03;5070540;28;20476;-73
2024/02/08 11:21:44;;;;;;;5.87;1.70;;;;;;;5.82;90.76;99706.25;5070408;28;20460;-73
2024/02/08 11:24:14;;;;;;;4.73;1.93;;;;;;;5.93;90.69;99701.56;5070864;28;20473;-73
2024/02/08 11:26:54;;;;;;;6.00;2.00;;;;;;;5.95;89.50;99698.59;5070971;28;20975;-73
2024/02/08 11:29:21;;;;;;;5.47;2.67;;;;;;;5.98;89.51;99687.25;5070446;28;20516;-73
2024/02/08 11:31:49;;;;;;;4.20;1.90;;;;;;;6.06;89.58;99692.78;5070006;28;20464;-74
2024/02/08 11:34:24;;;;;;;4.47;1.67;;;;;;;6.14;89.35;99691.28;5069940;28;20948;-73
2024/02/08 11:36:53;;;;;;;3.93;2.37;;;;;;;6.28;89.26;99684.06;5070648;28;20459;-72
2024/02/08 11:39:31;;;;;;;4.57;2.00;;;;;;;6.39;87.47;99684.69;5070177;28;20503;-73
2024/02/08 11:42:00;;;;;;;3.47;1.47;;;;;;;6.21;86.30;99685.56;5070473;28;20500;-71
2024/02/08 11:44:29;;;;;;;4.10;1.53;;;;;;;6.24;87.30;99685.75;5070194;28;20437;-72
2024/02/08 11:46:59;;;;;;;2.00;0.80;;;;;;;6.29;87.72;99679.50;5070001;28;20454;-72
2024/02/08 11:49:35;;;;;;;4.23;1.90;;;;;;;6.34;87.63;99684.78;5070334;28;20414;-72
2024/02/08 11:52:06;;;;;;;3.83;1.50;;;;;;;6.34;87.02;99675.94;5069977;28;20464;-72
2024/02/08 11:54:37;;;;;;;4.47;1.50;;;;;;;6.26;85.95;99675.50;5070316;28;20449;-72
2024/02/08 11:57:06;;;;;;;2.17;0.97;;;;;;;6.22;86.31;99673.69;5070208;28;20430;-73
2024/02/08 11:59:35;;;;;;;7.00;1.50;;;;;;;6.19;85.35;99680.44;5069895;28;20572;-72
2024/02/08 12:02:07;;;;;;;2.53;1.23;;;;;;;6.17;85.57;99676.47;5069715;28;20791;-72
2024/02/08 12:04:35;;;;;;;3.33;1.23;;;;;;;6.14;85.70;99668.97;5069390;28;20433;-72
2024/02/08 12:07:04;;;;;;;5.10;1.27;;;;;;;6.15;85.59;99670.56;5069839;28;20451;-72
2024/02/08 12:09:32;;;;;;;2.20;0.77;;;;;;;6.19;86.04;99668.91;5069558;28;20929;-72
2024/02/08 12:12:00;;;;;;;4.07;1.60;;;;;;;6.23;84.49;99668.00;5058385;28;20486;-72
2024/02/08 12:14:27;;;;;;;4.97;2.33;;;;;;;6.19;84.88;99661.63;5056407;28;20841;-72
2024/02/08 12:16:57;;;;;;;3.20;1.20;;;;;;;6.15;86.32;99655.25;5056599;28;20448;-73
2024/02/08 12:19:26;;;;;;;3.23;1.40;;;;;;;6.21;86.13;99653.28;5056352;28;20981;-70
2024/02/08 12:21:59;;;;;;;4.07;1.20;;;;;;;6.38;86.38;99648.16;5056449;28;20512;-71
2024/02/08 12:24:31;;;;;;;3.70;1.60;;;;;;;6.41;83.60;99638.66;5055953;28;20457;-72
2024/02/08 12:27:13;;;;;;;2.70;1.07;;;;;;;6.43;83.56;99633.81;5056151;28;20430;-70
2024/02/08 12:29:44;;;;;;;3.00;1.00;;;;;;;6.50;83.36;99632.31;5056081;28;20488;-71
2024/02/08 12:32:16;;;;;;;2.30;1.00;;;;;;;6.57;83.25;99629.25;5056003;28;20473;-71
2024/02/08 12:34:47;;;;;;;2.93;1.30;;;;;;;6.67;82.15;99618.28;5055953;28;20794;-71
2024/02/08 12:37:15;;;;;;;3.90;1.57;;;;;;;6.66;82.52;99627.44;5056203;28;20508;-71
2024/02/08 12:39:44;;;;;;;4.00;1.77;;;;;;;6.68;83.22;99617.16;5055729;28;20568;-71
2024/02/08 12:42:13;;;;;;;3.60;1.80;;;;;;;6.53;81.56;99617.47;5055710;28;20462;-71
2024/02/08 12:44:40;;;;;;;2.50;0.73;;;;;;;6.58;81.63;99606.63;5055754;28;20450;-71
2024/02/08 12:47:09;;;;;;;2.97;1.40;;;;;;;6.52;81.97;99610.50;5055373;28;20439;-70
2024/02/08 12:49:37;;;;;;;3.10;1.17;;;;;;;6.53;81.81;99610.19;5055997;28;20443;-70
2024/02/08 12:52:09;;;;;;;2.50;1.20;;;;;;;6.60;81.96;99595.53;5055545;28;20490;-71
2024/02/08 12:54:37;;;;;;;5.40;1.80;;;;;;;6.62;81.91;99601.44;5055750;28;20434;-71
2024/02/08 12:57:08;;;;;;;3.40;1.10;;;;;;;6.63;81.97;99600.34;5054559;28;20965;-73
2024/02/08 12:59:36;;;;;;;7.30;1.93;;;;;;;6.60;81.55;99603.63;5054907;28;20486;-73
2024/02/08 13:02:08;;;;;;;3.20;1.23;;;;;;;6.49;82.45;99603.03;5054907;28;20466;-73
2024/02/08 13:04:36;;;;;;;2.27;0.97;;;;;;;6.48;81.08;99602.22;5054569;28;20427;-73
2024/02/08 13:07:05;;;;;;;3.00;1.43;;;;;;;6.30;81.36;99597.72;5054654;28;20469;-73
2024/02/08 13:09:37;;;;;;;3.70;1.27;;;;;;;6.32;81.61;99596.31;5054300;28;20443;-73
2024/02/08 13:12:16;;;;;;;2.43;1.30;;;;;;;6.24;81.60;99588.97;5054890;28;21063;-73
2024/02/08 13:14:48;;;;;;;6.27;1.90;;;;;;;6.29;82.73;99580.00;5054739;28;20418;-73
2024/02/08 13:17:18;;;;;;;4.20;1.77;;;;;;;6.21;82.56;99578.78;5054605;28;20484;-73
2024/02/08 13:19:47;;;;;;;1.80;0.67;;;;;;;6.21;82.55;99573.41;5054273;28;20978;-73
2024/02/08 13:22:16;;;;;;;2.37;1.13;;;;;;;6.26;82.02;99576.00;5053999;28;20547;-73
2024/02/08 13:24:45;;;;;;;3.10;1.37;;;;;;;6.27;81.82;99579.50;5054273;28;20894;-73
2024/02/08 13:27:12;;;;;;;3.40;1.47;;;;;;;6.25;81.98;99585.19;5054347;28;20823;-73
2024/02/08 13:29:39;;;;;;;2.53;1.03;;;;;;;6.24;81.70;99580.06;5054412;28;20581;-73
2024/02/08 13:32:06;;;;;;;2.30;1.00;;;;;;;6.22;81.85;99577.69;5054252;28;20462;-73
2024/02/08 13:34:33;;;;;;;2.10;0.93;;;;;;;6.23;81.82;99579.28;5054548;28;20440;-73
2024/02/08 13:37:00;;;;;;;4.10;1.43;;;;;;;6.20;82.87;99569.13;5054247;28;20438;-73
2024/02/08 13:39:28;;;;;;;2.40;1.03;;;;;;;6.15;82.93;99569.19;5054358;28;20466;-75
2024/02/08 13:41:56;;;;;;;3.50;1.47;;;;;;;6.14;82.53;99564.13;5054034;28;20869;-73
2024/02/08 13:44:24;;;;;;;2.60;0.87;;;;;;;6.10;81.80;99561.25;5053627;28;20906;-72
2024/02/08 13:46:51;;;;;;;3.33;1.37;;;;;;;6.06;81.64;99561.06;5053827;28;20452;-73